Time;durP1;ratioP1;P1;durP2;ratioP2;P2;SDS_P1;SDS_P2;PMS_P1;PMS_P2;Temp;Humidity;BMP_temperature;BMP_pressure;BME280_temperature;BME280_humidity;BME280_pressure;Samples;Min_cycle;Max_cycle;Signal;HPM_P1;HPM_P2
2021/07/18 00:01:45;;;;;;;11.48;10.18;;;25.50;79.90;;;;;;5035788;28;20026;-69
2021/07/18 00:04:10;;;;;;;12.63;10.30;;;25.50;80.10;;;;;;5034670;28;20034;-69
2021/07/18 00:06:36;;;;;;;10.80;9.70;;;25.50;80.20;;;;;;5035783;28;20026;-68
2021/07/18 00:09:04;;;;;;;12.70;9.82;;;25.50;80.10;;;;;;5034724;28;20087;-68
2021/07/18 00:11:30;;;;;;;12.48;10.30;;;25.50;80.20;;;;;;5034692;28;20109;-69
2021/07/18 00:13:55;;;;;;;14.20;11.15;;;25.50;80.30;;;;;;5033413;28;20104;-68
2021/07/18 00:16:21;;;;;;;10.90;9.80;;;25.50;80.80;;;;;;5033767;28;20022;-69
2021/07/18 00:18:47;;;;;;;11.10;9.88;;;25.50;79.80;;;;;;5034090;28;20049;-68
2021/07/18 00:21:12;;;;;;;11.10;9.80;;;25.50;79.90;;;;;;5032329;28;20033;-68
2021/07/18 00:23:38;;;;;;;13.27;10.23;;;25.50;80.00;;;;;;5031469;28;20037;-68
2021/07/18 00:26:04;;;;;;;10.38;9.20;;;25.50;80.20;;;;;;5019299;28;20030;-68
2021/07/18 00:28:30;;;;;;;11.38;9.43;;;25.50;80.30;;;;;;5016092;28;20486;-69
2021/07/18 00:30:56;;;;;;;11.60;9.13;;;25.50;80.30;;;;;;5033835;28;20033;-68
2021/07/18 00:33:22;;;;;;;10.85;9.75;;;25.50;80.40;;;;;;5031833;28;20091;-68
2021/07/18 00:35:47;;;;;;;10.75;9.43;;;25.40;80.60;;;;;;5033577;28;20029;-69
2021/07/18 00:38:13;;;;;;;11.43;9.35;;;25.50;80.90;;;;;;5034765;28;20030;-69
2021/07/18 00:40:39;;;;;;;12.05;9.13;;;25.50;80.90;;;;;;5032428;28;20025;-68
2021/07/18 00:43:05;;;;;;;11.10;9.20;;;25.40;81.00;;;;;;5035425;28;20105;-68
2021/07/18 00:45:31;;;;;;;11.00;9.07;;;25.40;81.10;;;;;;5019616;28;20053;-69
2021/07/18 00:47:57;;;;;;;11.82;10.10;;;25.50;81.20;;;;;;5028577;28;20571;-69
2021/07/18 00:50:24;;;;;;;11.05;9.68;;;25.50;81.10;;;;;;5034941;28;20053;-69
2021/07/18 00:52:50;;;;;;;11.85;9.55;;;25.40;80.80;;;;;;5028411;28;20083;-69
2021/07/18 00:55:16;;;;;;;11.73;9.30;;;25.40;80.70;;;;;;5033251;28;20450;-68
2021/07/18 00:57:45;;;;;;;10.23;9.13;;;25.40;80.80;;;;;;5032809;28;20064;-68
2021/07/18 01:00:12;;;;;;;10.80;9.57;;;25.40;81.00;;;;;;5034289;28;20034;-68
2021/07/18 01:02:38;;;;;;;13.13;9.10;;;25.40;80.90;;;;;;5032877;28;20041;-68
2021/07/18 01:05:07;;;;;;;13.70;9.10;;;25.40;80.90;;;;;;5034708;28;20037;-68
2021/07/18 01:07:33;;;;;;;10.50;9.10;;;25.40;80.90;;;;;;5033502;28;20021;-68
2021/07/18 01:10:00;;;;;;;9.77;8.65;;;25.40;81.10;;;;;;5031889;28;20097;-69
2021/07/18 01:12:26;;;;;;;12.55;8.93;;;25.50;81.10;;;;;;5032063;28;20046;-69
2021/07/18 01:14:51;;;;;;;10.65;9.00;;;25.40;81.00;;;;;;5033876;28;20037;-69
2021/07/18 01:17:17;;;;;;;10.55;9.43;;;25.50;81.20;;;;;;5034447;28;20029;-69
2021/07/18 01:19:43;;;;;;;12.93;9.57;;;25.50;81.10;;;;;;5033887;28;20057;-68
2021/07/18 01:22:09;;;;;;;11.65;10.25;;;25.50;81.10;;;;;;5031717;28;20034;-69
2021/07/18 01:24:34;;;;;;;14.85;10.32;;;25.50;81.10;;;;;;5032971;28;20091;-68
2021/07/18 01:27:02;;;;;;;11.25;9.50;;;25.50;81.20;;;;;;5034511;28;20022;-68
2021/07/18 01:29:29;;;;;;;11.40;10.07;;;25.50;81.50;;;;;;5033302;28;20029;-69
2021/07/18 01:31:56;;;;;;;11.23;9.25;;;25.50;81.50;;;;;;5034246;28;20037;-68
2021/07/18 01:34:22;;;;;;;12.88;10.20;;;25.50;81.50;;;;;;5032824;28;20484;-69
2021/07/18 01:36:48;;;;;;;11.00;9.15;;;25.50;81.40;;;;;;5034469;28;20108;-68
2021/07/18 01:39:15;;;;;;;12.15;9.73;;;25.50;81.50;;;;;;5032289;28;20531;-68
2021/07/18 01:41:41;;;;;;;10.57;9.30;;;25.50;81.50;;;;;;5034323;28;20458;-68
2021/07/18 01:44:07;;;;;;;10.85;9.40;;;25.50;81.50;;;;;;5033449;28;20033;-68
2021/07/18 01:46:35;;;;;;;12.02;9.60;;;25.50;81.50;;;;;;5034079;28;20104;-68
2021/07/18 01:49:03;;;;;;;11.98;9.10;;;25.50;81.40;;;;;;5032387;28;20029;-68
2021/07/18 01:51:29;;;;;;;11.30;10.10;;;25.50;81.40;;;;;;5025118;28;20026;-68
2021/07/18 01:53:59;;;;;;;12.32;10.35;;;25.50;81.60;;;;;;5021715;28;20474;-68
2021/07/18 01:56:26;;;;;;;11.10;9.90;;;25.40;81.50;;;;;;5030671;28;20399;-68
2021/07/18 01:58:53;;;;;;;11.55;9.75;;;25.40;81.50;;;;;;5033168;28;20107;-68
2021/07/18 02:01:23;;;;;;;14.32;10.02;;;25.40;81.70;;;;;;5032551;28;20365;-68
2021/07/18 02:03:50;;;;;;;11.10;9.75;;;25.40;81.80;;;;;;5033053;28;20041;-68
2021/07/18 02:06:16;;;;;;;12.90;10.43;;;25.40;81.70;;;;;;5033750;28;20061;-68
2021/07/18 02:08:42;;;;;;;10.65;9.55;;;25.40;81.90;;;;;;5032571;28;20442;-68
2021/07/18 02:11:07;;;;;;;13.52;9.65;;;25.40;81.80;;;;;;5032396;28;20406;-68
2021/07/18 02:13:33;;;;;;;13.43;10.30;;;25.40;81.80;;;;;;5032970;28;20033;-68
2021/07/18 02:16:00;;;;;;;12.68;10.27;;;25.40;81.90;;;;;;5033520;28;20028;-69
2021/07/18 02:18:26;;;;;;;13.20;9.95;;;25.40;81.90;;;;;;5031679;28;20034;-68
2021/07/18 02:20:57;;;;;;;11.80;9.65;;;25.40;81.80;;;;;;5031016;28;20079;-68
2021/07/18 02:23:23;;;;;;;12.15;9.93;;;25.40;81.60;;;;;;5022636;28;20025;-68
2021/07/18 02:25:49;;;;;;;13.82;10.30;;;25.40;81.80;;;;;;5026795;28;20438;-68
2021/07/18 02:28:15;;;;;;;13.43;10.65;;;25.40;81.80;;;;;;5032260;28;20451;-68
2021/07/18 02:30:41;;;;;;;12.15;10.00;;;25.40;81.80;;;;;;5033533;28;20124;-68
2021/07/18 02:33:07;;;;;;;9.98;8.95;;;25.40;81.50;;;;;;5032275;28;20057;-68
2021/07/18 02:35:33;;;;;;;12.10;10.15;;;25.40;81.60;;;;;;5032074;28;20033;-68
2021/07/18 02:37:59;;;;;;;12.43;10.32;;;25.40;81.70;;;;;;5033574;28;20025;-68
2021/07/18 02:40:24;;;;;;;12.00;10.45;;;25.50;81.90;;;;;;5031282;28;20075;-68
2021/07/18 02:42:51;;;;;;;12.30;9.90;;;25.50;81.90;;;;;;5028281;28;20068;-68
2021/07/18 02:45:21;;;;;;;11.50;9.60;;;25.50;81.80;;;;;;5030528;28;20041;-68
2021/07/18 02:47:48;;;;;;;14.48;10.55;;;25.50;81.70;;;;;;5033400;28;20022;-68
2021/07/18 02:50:17;;;;;;;13.02;10.30;;;25.50;81.90;;;;;;5032308;28;20033;-68
2021/07/18 02:52:43;;;;;;;12.85;10.30;;;25.50;81.80;;;;;;5030921;28;20105;-68
2021/07/18 02:55:10;;;;;;;16.60;14.43;;;25.50;81.90;;;;;;5032586;28;20056;-68
2021/07/18 02:57:35;;;;;;;14.00;11.77;;;25.50;81.70;;;;;;5032327;28;20036;-68
2021/07/18 03:00:08;;;;;;;18.38;11.20;;;25.60;81.70;;;;;;5031639;28;20029;-68
2021/07/18 03:02:34;;;;;;;12.20;10.13;;;25.60;81.40;;;;;;5028880;28;20539;-68
2021/07/18 03:05:01;;;;;;;14.48;11.02;;;25.60;81.60;;;;;;5033227;28;20477;-68
2021/07/18 03:07:27;;;;;;;12.27;10.52;;;25.70;81.40;;;;;;5033065;28;20020;-68
2021/07/18 03:09:52;;;;;;;12.57;10.82;;;25.70;81.40;;;;;;5029933;28;20100;-68
2021/07/18 03:12:18;;;;;;;13.27;10.93;;;25.70;81.50;;;;;;5029445;28;20029;-68
2021/07/18 03:14:44;;;;;;;11.05;9.95;;;25.70;81.30;;;;;;5031712;28;20025;-68
2021/07/18 03:17:10;;;;;;;12.55;10.32;;;25.80;81.20;;;;;;5033228;28;20033;-68
2021/07/18 03:19:36;;;;;;;11.43;10.32;;;25.90;81.30;;;;;;5032254;28;20045;-69
2021/07/18 03:22:02;;;;;;;15.23;10.85;;;25.90;81.00;;;;;;5023832;28;20148;-68
2021/07/18 03:24:28;;;;;;;14.27;10.90;;;25.90;80.90;;;;;;5026698;28;20030;-68
2021/07/18 03:26:53;;;;;;;12.20;10.90;;;26.00;80.80;;;;;;5031844;28;20032;-68
2021/07/18 03:29:19;;;;;;;13.45;10.57;;;26.10;80.80;;;;;;5032782;28;20026;-68
2021/07/18 03:31:45;;;;;;;11.65;10.45;;;26.20;80.90;;;;;;5031788;28;20476;-68
2021/07/18 03:34:10;;;;;;;11.77;10.63;;;26.40;81.10;;;;;;5034294;28;20091;-68
2021/07/18 03:36:36;;;;;;;11.65;10.25;;;26.50;81.30;;;;;;5032615;28;20088;-68
2021/07/18 03:39:02;;;;;;;13.00;10.50;;;26.70;81.50;;;;;;5035581;28;20033;-68
2021/07/18 03:41:28;;;;;;;13.00;11.27;;;26.90;81.00;;;;;;5036215;28;20029;-68
2021/07/18 03:43:54;;;;;;;13.30;10.32;;;27.10;80.70;;;;;;5035597;28;20083;-68
2021/07/18 03:46:20;;;;;;;12.45;11.15;;;27.40;80.40;;;;;;5036160;28;20485;-68
2021/07/18 03:48:46;;;;;;;12.88;10.65;;;27.80;79.70;;;;;;5035892;28;20063;-68
2021/07/18 03:51:11;;;;;;;11.45;10.30;;;28.20;78.90;;;;;;5035495;28;20490;-68
2021/07/18 03:53:37;;;;;;;11.32;10.20;;;28.60;77.70;;;;;;5034384;28;20037;-68
2021/07/18 03:56:03;;;;;;;12.43;10.50;;;29.20;76.30;;;;;;5032767;28;20053;-68
2021/07/18 03:58:29;;;;;;;12.40;10.52;;;29.90;74.60;;;;;;5019595;28;20025;-68
2021/07/18 04:00:55;;;;;;;13.60;10.23;;;30.60;72.30;;;;;;5032553;28;20026;-68
2021/07/18 04:03:20;;;;;;;11.13;9.90;;;31.40;70.30;;;;;;5035434;28;20017;-68
2021/07/18 04:05:46;;;;;;;12.30;10.30;;;32.10;68.20;;;;;;5036098;28;20030;-68
2021/07/18 04:08:12;;;;;;;11.30;10.07;;;32.80;66.00;;;;;;5036007;28;20539;-68
2021/07/18 04:10:38;;;;;;;11.40;10.20;;;33.50;64.30;;;;;;5032995;28;20121;-68
2021/07/18 04:13:03;;;;;;;10.85;9.75;;;34.20;62.90;;;;;;5035962;28;20523;-68
2021/07/18 04:15:29;;;;;;;10.93;9.82;;;34.70;61.30;;;;;;5034075;28;20448;-68
2021/07/18 04:17:55;;;;;;;11.90;9.70;;;35.30;60.00;;;;;;5035084;28;20027;-68
2021/07/18 04:20:21;;;;;;;10.25;9.25;;;35.90;58.80;;;;;;5034983;28;20041;-68
2021/07/18 04:22:46;;;;;;;12.50;9.40;;;36.50;57.60;;;;;;5023499;28;20041;-68
2021/07/18 04:25:12;;;;;;;10.73;9.68;;;37.00;56.40;;;;;;5034403;28;20052;-68
2021/07/18 04:27:38;;;;;;;11.27;9.57;;;37.50;55.60;;;;;;5035313;28;20478;-68
2021/07/18 04:30:05;;;;;;;17.48;9.60;;;37.90;54.50;;;;;;5034938;28;20061;-68
2021/07/18 04:32:31;;;;;;;11.05;9.95;;;38.30;53.40;;;;;;5035410;28;20461;-68
2021/07/18 04:34:57;;;;;;;10.55;9.45;;;38.80;52.70;;;;;;5035003;28;20025;-68
2021/07/18 04:37:22;;;;;;;10.30;9.38;;;39.20;52.00;;;;;;5035431;28;20036;-68
2021/07/18 04:39:48;;;;;;;10.15;8.82;;;39.50;51.30;;;;;;5033262;28;20029;-68
2021/07/18 04:42:14;;;;;;;10.93;9.70;;;39.80;50.70;;;;;;5033997;28;20132;-68
2021/07/18 04:44:39;;;;;;;10.85;9.75;;;40.10;50.20;;;;;;5033780;28;20029;-68
2021/07/18 04:47:05;;;;;;;10.52;9.43;;;40.40;49.60;;;;;;5034136;28;20105;-68
2021/07/18 04:49:31;;;;;;;12.82;9.40;;;40.70;49.30;;;;;;5034543;28;20033;-68
2021/07/18 04:51:58;;;;;;;10.10;9.20;;;41.00;48.80;;;;;;5024349;28;20509;-68
2021/07/18 04:54:23;;;;;;;10.43;9.43;;;41.20;48.30;;;;;;5028477;28;20026;-68
2021/07/18 04:56:49;;;;;;;10.57;9.15;;;41.40;48.10;;;;;;5034554;28;20036;-68
2021/07/18 04:59:15;;;;;;;9.82;8.93;;;41.60;47.80;;;;;;5033916;28;20057;-68
2021/07/18 05:01:40;;;;;;;10.40;9.40;;;41.70;47.30;;;;;;5033601;28;20049;-68
2021/07/18 05:04:06;;;;;;;10.45;9.30;;;41.90;47.10;;;;;;5032486;28;20029;-68
2021/07/18 05:06:32;;;;;;;13.18;9.48;;;42.00;46.70;;;;;;5032420;28;20025;-68
2021/07/18 05:08:58;;;;;;;10.27;9.27;;;42.10;46.50;;;;;;5019961;28;20354;-68
2021/07/18 05:11:23;;;;;;;10.15;9.25;;;42.30;46.30;;;;;;5032624;28;20026;-68
2021/07/18 05:13:50;;;;;;;10.45;9.45;;;42.30;45.90;;;;;;5034200;28;20544;-68
2021/07/18 05:16:16;;;;;;;10.57;9.50;;;42.40;45.90;;;;;;5034711;28;20095;-68
2021/07/18 05:18:42;;;;;;;10.27;9.27;;;42.50;45.60;;;;;;5032942;28;20510;-68
2021/07/18 05:21:08;;;;;;;9.68;8.77;;;42.60;45.60;;;;;;5030989;28;20462;-68
2021/07/18 05:23:33;;;;;;;10.60;9.52;;;42.70;45.50;;;;;;5014512;28;20030;-68
2021/07/18 05:25:59;;;;;;;10.52;8.93;;;42.80;45.20;;;;;;5014928;28;20033;-68
2021/07/18 05:28:25;;;;;;;10.13;9.13;;;42.80;44.70;;;;;;5031401;28;20029;-68
2021/07/18 05:30:50;;;;;;;11.32;9.63;;;42.60;44.30;;;;;;5033705;28;20064;-68
2021/07/18 05:33:16;;;;;;;11.15;9.77;;;42.20;44.50;;;;;;5033977;28;20029;-68
2021/07/18 05:35:43;;;;;;;10.70;9.52;;;41.60;45.20;;;;;;5034228;28;20509;-68
2021/07/18 05:38:08;;;;;;;10.40;9.45;;;40.90;46.00;;;;;;5034415;28;20029;-68
2021/07/18 05:40:34;;;;;;;11.10;9.93;;;40.00;46.90;;;;;;5031937;28;20025;-68
2021/07/18 05:43:00;;;;;;;10.88;9.50;;;39.10;47.80;;;;;;5033830;28;20112;-68
2021/07/18 05:45:26;;;;;;;10.48;9.40;;;38.30;48.90;;;;;;5033130;28;20076;-68
2021/07/18 05:47:52;;;;;;;11.10;10.10;;;37.50;50.20;;;;;;5034419;28;20462;-68
2021/07/18 05:50:17;;;;;;;11.43;10.23;;;36.80;51.40;;;;;;5033507;28;20025;-68
2021/07/18 05:52:43;;;;;;;11.65;10.55;;;36.20;52.60;;;;;;5032780;28;20033;-68
2021/07/18 05:55:11;;;;;;;11.52;10.27;;;35.70;53.50;;;;;;5030942;28;20025;-68
2021/07/18 05:57:37;;;;;;;11.80;10.63;;;35.20;54.10;;;;;;5032769;28;20037;-68
2021/07/18 06:00:08;;;;;;;11.95;10.65;;;34.80;54.80;;;;;;5033279;28;20044;-68
2021/07/18 06:02:33;;;;;;;11.68;10.57;;;34.50;55.70;;;;;;5033396;28;20025;-68
2021/07/18 06:04:59;;;;;;;12.27;10.68;;;34.20;56.40;;;;;;5033037;28;20374;-68
2021/07/18 06:07:25;;;;;;;12.27;11.00;;;33.90;56.80;;;;;;5031842;28;20029;-68
2021/07/18 06:09:51;;;;;;;11.60;10.45;;;33.70;57.20;;;;;;5032208;28;20033;-68
2021/07/18 06:12:16;;;;;;;12.65;10.43;;;33.60;57.80;;;;;;5024855;28;20022;-68
2021/07/18 06:14:43;;;;;;;16.95;11.45;;;33.30;58.40;;;;;;5033014;28;20087;-68
2021/07/18 06:17:11;;;;;;;16.15;10.13;;;33.20;59.00;;;;;;5033972;28;20037;-68
2021/07/18 06:19:37;;;;;;;11.73;10.52;;;33.10;59.20;;;;;;5033117;28;20129;-68
2021/07/18 06:22:03;;;;;;;11.13;9.90;;;32.90;59.60;;;;;;5019366;28;20033;-68
2021/07/18 06:24:28;;;;;;;11.93;10.02;;;32.80;59.70;;;;;;5024623;28;20033;-68
2021/07/18 06:26:54;;;;;;;12.98;11.18;;;32.60;60.10;;;;;;5033654;28;20075;-68
2021/07/18 06:29:20;;;;;;;11.88;10.68;;;32.60;60.50;;;;;;5032350;28;20068;-68
2021/07/18 06:31:46;;;;;;;12.02;10.43;;;32.40;60.70;;;;;;5032955;28;20460;-68
2021/07/18 06:34:12;;;;;;;12.45;10.27;;;32.40;61.00;;;;;;5030429;28;20033;-68
2021/07/18 06:36:37;;;;;;;11.55;10.45;;;32.20;61.20;;;;;;5033200;28;20029;-68
2021/07/18 06:39:03;;;;;;;12.18;10.88;;;32.10;61.30;;;;;;5032749;28;20021;-68
2021/07/18 06:41:29;;;;;;;11.13;10.00;;;32.10;61.40;;;;;;5031247;28;20029;-68
2021/07/18 06:43:54;;;;;;;12.73;10.20;;;32.10;61.80;;;;;;5033251;28;20033;-68
2021/07/18 06:46:20;;;;;;;11.07;9.98;;;32.00;61.80;;;;;;5032665;28;20026;-69
2021/07/18 06:48:46;;;;;;;11.63;10.38;;;31.90;62.20;;;;;;5032254;28;20113;-68
2021/07/18 06:51:11;;;;;;;11.65;10.48;;;31.90;62.30;;;;;;5030666;28;20424;-69
2021/07/18 06:53:37;;;;;;;15.95;10.23;;;31.80;62.50;;;;;;5031892;28;20070;-68
2021/07/18 06:56:03;;;;;;;11.50;10.30;;;31.80;63.00;;;;;;5032712;28;20060;-69
2021/07/18 06:58:28;;;;;;;11.75;10.55;;;31.80;63.10;;;;;;5031435;28;20014;-68
2021/07/18 07:00:54;;;;;;;11.50;10.30;;;31.70;63.30;;;;;;5028659;28;20030;-69
2021/07/18 07:03:20;;;;;;;11.38;10.27;;;31.70;63.30;;;;;;5030333;28;20025;-68
2021/07/18 07:05:45;;;;;;;11.88;10.25;;;31.70;63.50;;;;;;5031457;28;20033;-68
2021/07/18 07:08:11;;;;;;;12.18;10.98;;;31.70;63.70;;;;;;5031708;28;20034;-68
2021/07/18 07:10:37;;;;;;;15.57;11.32;;;31.70;63.90;;;;;;5034403;28;20100;-68
2021/07/18 07:13:03;;;;;;;12.80;10.15;;;31.60;63.60;;;;;;5036824;28;20017;-68
2021/07/18 07:15:29;;;;;;;11.63;10.52;;;31.60;63.60;;;;;;5034695;28;20055;-68
2021/07/18 07:17:55;;;;;;;12.27;10.25;;;31.60;63.80;;;;;;5032272;28;20021;-68
2021/07/18 07:20:20;;;;;;;11.68;10.43;;;31.50;64.50;;;;;;5036469;28;20367;-68
2021/07/18 07:22:46;;;;;;;11.88;10.68;;;31.50;64.60;;;;;;5035242;28;20489;-68
2021/07/18 07:25:14;;;;;;;11.88;9.98;;;31.50;65.60;;;;;;5035473;28;20520;-68
2021/07/18 07:27:40;;;;;;;12.65;11.20;;;31.50;65.00;;;;;;5036171;28;20021;-68
2021/07/18 07:30:07;;;;;;;11.23;10.13;;;31.50;65.00;;;;;;5036147;28;20343;-68
2021/07/18 07:32:34;;;;;;;13.02;10.35;;;31.50;65.00;;;;;;5027820;28;20057;-68
2021/07/18 07:34:59;;;;;;;11.80;9.85;;;31.50;64.70;;;;;;5028063;28;20492;-68
2021/07/18 07:37:27;;;;;;;11.82;10.63;;;31.50;64.80;;;;;;5034951;28;20026;-68
2021/07/18 07:39:53;;;;;;;12.00;10.38;;;31.50;65.00;;;;;;5035241;28;20183;-68
2021/07/18 07:42:21;;;;;;;13.25;10.07;;;31.40;65.00;;;;;;5035861;28;20034;-68
2021/07/18 07:44:48;;;;;;;11.10;9.65;;;31.40;65.10;;;;;;5034571;28;20120;-68
2021/07/18 07:47:15;;;;;;;11.25;10.02;;;31.40;65.30;;;;;;5036276;28;20036;-68
2021/07/18 07:49:42;;;;;;;10.25;9.25;;;31.40;65.50;;;;;;5035810;28;20018;-68
2021/07/18 07:52:09;;;;;;;10.60;9.50;;;31.40;65.60;;;;;;5035425;28;20505;-68
2021/07/18 07:54:35;;;;;;;11.43;9.88;;;31.40;65.60;;;;;;5034245;28;20032;-68
2021/07/18 07:57:00;;;;;;;10.77;9.18;;;31.40;65.80;;;;;;5034693;28;20029;-68
2021/07/18 07:59:26;;;;;;;10.98;9.27;;;31.40;65.70;;;;;;5033047;28;20037;-68
2021/07/18 08:01:53;;;;;;;11.25;9.63;;;31.40;65.40;;;;;;5034270;28;20029;-68
2021/07/18 08:04:19;;;;;;;10.13;9.13;;;31.40;65.30;;;;;;5035137;28;20029;-68
2021/07/18 08:06:45;;;;;;;10.23;9.13;;;31.40;65.30;;;;;;5034809;28;20044;-68
2021/07/18 08:09:10;;;;;;;10.82;9.73;;;31.40;65.40;;;;;;5034649;28;20075;-68
2021/07/18 08:11:36;;;;;;;11.95;9.15;;;31.40;65.00;;;;;;5035143;28;20049;-68
2021/07/18 08:14:02;;;;;;;9.32;7.90;;;31.40;64.90;;;;;;5035779;28;20064;-68
2021/07/18 08:16:28;;;;;;;11.30;9.07;;;31.40;64.80;;;;;;5035076;28;20037;-68
2021/07/18 08:18:53;;;;;;;10.77;9.57;;;31.40;64.80;;;;;;5034331;28;20046;-68
2021/07/18 08:21:19;;;;;;;9.95;8.95;;;31.40;64.80;;;;;;5032527;28;20033;-68
2021/07/18 08:23:49;;;;;;;9.40;8.50;;;31.40;65.20;;;;;;5027100;28;20037;-68
2021/07/18 08:26:16;;;;;;;8.50;7.57;;;31.30;64.40;;;;;;5034537;28;20018;-68
2021/07/18 08:28:42;;;;;;;9.52;8.63;;;31.30;63.50;;;;;;5035571;28;20079;-68
2021/07/18 08:31:07;;;;;;;8.85;7.95;;;31.30;63.50;;;;;;5016870;28;20069;-68
2021/07/18 08:33:33;;;;;;;9.38;7.80;;;31.30;63.40;;;;;;5015923;28;20022;-68
2021/07/18 08:35:58;;;;;;;12.18;8.00;;;31.30;63.30;;;;;;5029777;28;20037;-68
2021/07/18 08:38:24;;;;;;;9.15;6.53;;;31.30;62.90;;;;;;5035298;28;20033;-68
2021/07/18 08:40:50;;;;;;;7.78;6.72;;;31.30;62.60;;;;;;5033667;28;20025;-68
2021/07/18 08:43:19;;;;;;;7.50;6.80;;;31.20;62.00;;;;;;5035478;28;20079;-68
2021/07/18 08:45:45;;;;;;;8.05;6.70;;;31.30;62.60;;;;;;5034278;28;20079;-68
2021/07/18 08:48:11;;;;;;;8.55;7.35;;;31.20;62.00;;;;;;5035201;28;20100;-68
2021/07/18 08:50:37;;;;;;;8.95;6.55;;;31.20;61.70;;;;;;5033811;28;20104;-68
2021/07/18 08:53:03;;;;;;;7.85;6.53;;;31.20;61.70;;;;;;5034508;28;20097;-68
2021/07/18 08:55:29;;;;;;;7.30;6.55;;;31.10;61.40;;;;;;5031926;28;20382;-68
2021/07/18 08:57:57;;;;;;;7.82;6.88;;;31.10;61.50;;;;;;5034609;28;20453;-68
2021/07/18 09:00:23;;;;;;;7.50;6.70;;;31.10;61.50;;;;;;5031550;28;20056;-68
2021/07/18 09:02:49;;;;;;;7.75;6.95;;;31.10;61.80;;;;;;5031936;28;20037;-68
2021/07/18 09:05:15;;;;;;;7.60;6.90;;;31.10;62.10;;;;;;5031629;28;20041;-69
2021/07/18 09:07:46;;;;;;;8.02;7.22;;;31.00;61.30;;;;;;5033001;28;20026;-69
2021/07/18 09:10:14;;;;;;;7.30;6.38;;;30.90;61.20;;;;;;5031055;28;20029;-68
2021/07/18 09:12:40;;;;;;;7.15;6.45;;;30.90;62.30;;;;;;5032791;28;20030;-68
2021/07/18 09:15:09;;;;;;;7.20;6.50;;;30.90;61.00;;;;;;5033912;28;20025;-68
2021/07/18 09:17:36;;;;;;;6.75;6.15;;;30.90;60.00;;;;;;5034825;28;20032;-68
2021/07/18 09:20:13;;;;;;;6.20;5.60;;;30.90;60.10;;;;;;5033900;28;20108;-68
2021/07/18 09:22:39;;;;;;;8.10;6.00;;;30.90;60.10;;;;;;5034622;28;20057;-68
2021/07/18 09:25:05;;;;;;;6.40;5.80;;;30.80;59.90;;;;;;5030966;28;20064;-68
2021/07/18 09:27:33;;;;;;;6.72;6.13;;;30.80;59.30;;;;;;5027918;28;20087;-68
2021/07/18 09:30:16;;;;;;;6.50;5.90;;;30.80;59.00;;;;;;5029086;28;20045;-68
2021/07/18 09:32:46;;;;;;;8.45;6.05;;;30.80;58.50;;;;;;5033671;28;20040;-68
2021/07/18 09:35:14;;;;;;;6.97;5.38;;;30.80;58.70;;;;;;5033825;28;20051;-68
2021/07/18 09:37:43;;;;;;;6.80;6.13;;;30.70;58.90;;;;;;5034038;28;20029;-69
2021/07/18 09:40:23;;;;;;;7.13;6.40;;;30.70;59.50;;;;;;5033061;28;20354;-69
2021/07/18 09:42:53;;;;;;;8.93;7.13;;;30.80;60.00;;;;;;5034238;28;20373;-69
2021/07/18 09:45:22;;;;;;;7.90;7.10;;;30.80;60.40;;;;;;5031421;28;20033;-69
2021/07/18 09:48:05;;;;;;;8.05;7.25;;;30.80;60.40;;;;;;5032575;28;20017;-69
2021/07/18 09:50:44;;;;;;;8.38;7.18;;;30.80;60.70;;;;;;5032906;28;20026;-69
2021/07/18 09:53:17;;;;;;;8.83;7.03;;;30.80;60.90;;;;;;5028976;28;20028;-69
2021/07/18 09:56:03;;;;;;;7.82;7.13;;;30.80;60.90;;;;;;5031665;28;20040;-69
2021/07/18 09:58:30;;;;;;;8.48;7.68;;;30.90;60.80;;;;;;5033146;28;20172;-68
2021/07/18 10:00:57;;;;;;;7.88;7.18;;;30.80;60.90;;;;;;5031357;28;20091;-69
2021/07/18 10:03:27;;;;;;;7.75;6.97;;;30.90;60.70;;;;;;5034062;28;20389;-69
2021/07/18 10:06:04;;;;;;;;;;;30.90;60.70;;;;;;5033437;28;20491;-69
2021/07/18 10:08:31;;;;;;;9.25;7.70;;;30.90;60.80;;;;;;5030753;28;19912;-69
2021/07/18 10:10:57;;;;;;;8.35;7.53;;;30.90;61.20;;;;;;5031685;28;20025;-69
2021/07/18 10:13:23;;;;;;;8.43;7.63;;;30.90;61.20;;;;;;5034145;28;20034;-69
2021/07/18 10:15:50;;;;;;;9.63;7.25;;;31.00;61.00;;;;;;5033361;28;20017;-69
2021/07/18 10:18:16;;;;;;;7.32;6.63;;;31.00;60.90;;;;;;5033761;28;20409;-69
2021/07/18 10:20:42;;;;;;;8.35;7.25;;;31.00;60.80;;;;;;5032776;28;20095;-68
2021/07/18 10:23:09;;;;;;;8.65;7.00;;;31.10;60.90;;;;;;5033742;28;20504;-69
2021/07/18 10:25:35;;;;;;;8.18;7.38;;;31.10;60.80;;;;;;5031397;28;20025;-69
2021/07/18 10:28:01;;;;;;;8.52;7.63;;;31.20;60.70;;;;;;5033073;28;20064;-69
2021/07/18 10:30:30;;;;;;;8.60;7.72;;;31.20;60.70;;;;;;5030979;28;20079;-69
2021/07/18 10:32:59;;;;;;;9.82;8.38;;;31.20;60.50;;;;;;5023869;28;20100;-69
2021/07/18 10:35:25;;;;;;;9.77;8.88;;;31.20;60.60;;;;;;5032856;28;20117;-69
2021/07/18 10:37:51;;;;;;;9.65;8.65;;;31.20;60.60;;;;;;5033010;28;20036;-68
2021/07/18 10:40:21;;;;;;;8.65;7.85;;;31.20;60.70;;;;;;5031882;28;20084;-68
2021/07/18 10:42:49;;;;;;;8.45;7.55;;;31.20;60.30;;;;;;5034561;28;20071;-69
2021/07/18 10:45:20;;;;;;;8.30;7.45;;;31.20;60.10;;;;;;5034361;28;20061;-68
2021/07/18 10:48:06;;;;;;;8.63;7.82;;;31.20;60.00;;;;;;5017542;28;20037;-69
2021/07/18 10:50:44;;;;;;;8.18;7.38;;;31.20;60.00;;;;;;5028532;28;20083;-68
2021/07/18 10:53:31;;;;;;;8.13;7.32;;;31.20;59.90;;;;;;5036541;28;20067;-69
2021/07/18 10:55:59;;;;;;;8.38;7.00;;;31.20;59.70;;;;;;5035835;28;20056;-68
2021/07/18 10:58:40;;;;;;;8.48;7.00;;;31.20;59.50;;;;;;5037081;28;20070;-69
2021/07/18 11:01:05;;;;;;;7.72;6.65;;;31.20;59.80;;;;;;5033063;28;20398;-69
2021/07/18 11:03:35;;;;;;;7.40;6.70;;;31.20;59.60;;;;;;5037218;28;20029;-69
2021/07/18 11:06:27;;;;;;;7.55;6.82;;;31.20;59.30;;;;;;5035532;28;20041;-68
2021/07/18 11:09:18;;;;;;;7.88;6.88;;;31.20;59.10;;;;;;5035458;28;20035;-68
2021/07/18 11:11:50;;;;;;;8.60;6.90;;;31.20;59.30;;;;;;5017161;28;20036;-68
2021/07/18 11:14:22;;;;;;;8.13;7.32;;;31.20;59.20;;;;;;5016086;28;20036;-68
2021/07/18 11:16:49;;;;;;;7.55;6.85;;;31.20;59.10;;;;;;5036339;28;20018;-68
2021/07/18 11:19:39;;;;;;;7.93;7.13;;;31.30;59.50;;;;;;5036368;28;20122;-68
2021/07/18 11:22:05;;;;;;;;;;;31.30;59.40;;;;;;5037391;28;20034;-68
2021/07/18 11:24:55;;;;;;;7.72;6.95;;;31.30;59.50;;;;;;5035250;28;19917;-68
2021/07/18 11:27:28;;;;;;;7.55;6.82;;;31.30;59.40;;;;;;5037021;28;20032;-68
2021/07/18 11:29:55;;;;;;;7.88;7.07;;;31.40;59.10;;;;;;5034419;28;20041;-68
2021/07/18 11:32:32;;;;;;;7.70;7.00;;;31.50;58.90;;;;;;5036645;28;20032;-68
2021/07/18 11:35:00;;;;;;;9.70;6.75;;;31.50;58.50;;;;;;5035085;28;20029;-68
2021/07/18 11:37:27;;;;;;;7.00;6.30;;;31.50;58.00;;;;;;5028058;28;20481;-69
2021/07/18 11:40:01;;;;;;;7.60;6.28;;;31.50;58.00;;;;;;5036017;28;20039;-69
2021/07/18 11:42:27;;;;;;;7.57;6.57;;;31.60;57.60;;;;;;5036047;28;20034;-68
2021/07/18 11:44:53;;;;;;;8.50;6.75;;;31.60;57.40;;;;;;5035685;28;20021;-68
2021/07/18 11:47:19;;;;;;;13.18;7.18;;;31.70;57.20;;;;;;5035808;28;20104;-68
2021/07/18 11:49:48;;;;;;;6.95;6.25;;;31.60;57.10;;;;;;5035954;28;20029;-68
2021/07/18 11:52:15;;;;;;;8.82;7.45;;;31.70;57.20;;;;;;5036546;28;20028;-68
2021/07/18 11:54:41;;;;;;;9.10;7.97;;;31.70;58.10;;;;;;5033151;28;20051;-68
2021/07/18 11:57:15;;;;;;;8.73;7.28;;;31.70;59.00;;;;;;5034755;28;20466;-68
2021/07/18 11:59:43;;;;;;;9.32;7.32;;;31.70;58.80;;;;;;5021648;28;20028;-68
2021/07/18 12:02:10;;;;;;;8.73;6.93;;;31.70;58.70;;;;;;5036140;28;20100;-68
2021/07/18 12:04:36;;;;;;;7.82;6.72;;;31.70;58.50;;;;;;5035044;28;20026;-68
2021/07/18 12:07:08;;;;;;;8.63;7.82;;;31.60;58.40;;;;;;5035589;28;20429;-68
2021/07/18 12:09:39;;;;;;;8.25;7.15;;;31.60;58.40;;;;;;5033793;28;20088;-69
2021/07/18 12:12:13;;;;;;;7.13;6.43;;;31.60;58.40;;;;;;5034611;28;20049;-68
2021/07/18 12:14:40;;;;;;;7.38;6.70;;;31.60;58.20;;;;;;5035997;28;20106;-69
2021/07/18 12:17:08;;;;;;;7.82;6.60;;;31.60;58.00;;;;;;5035873;28;20026;-69
2021/07/18 12:19:35;;;;;;;8.40;7.50;;;31.60;58.20;;;;;;5034127;28;20121;-69
2021/07/18 12:22:06;;;;;;;7.95;7.25;;;31.60;58.70;;;;;;5035734;28;20021;-68
2021/07/18 12:24:35;;;;;;;8.25;7.43;;;31.60;59.10;;;;;;5033015;28;20474;-68
2021/07/18 12:27:21;;;;;;;7.60;6.90;;;31.60;58.80;;;;;;5015893;28;20018;-68
2021/07/18 12:29:55;;;;;;;8.27;7.22;;;31.50;59.10;;;;;;5021068;28;20101;-68
2021/07/18 12:32:33;;;;;;;7.78;7.07;;;31.60;59.40;;;;;;5035151;28;20028;-68
2021/07/18 12:35:00;;;;;;;7.95;7.15;;;31.50;59.30;;;;;;5033470;28;20052;-68
2021/07/18 12:37:32;;;;;;;8.00;7.20;;;31.50;59.00;;;;;;5035700;28;20035;-68
2021/07/18 12:40:05;;;;;;;8.25;7.55;;;31.50;58.60;;;;;;5033697;28;20021;-68